Time;durP1;ratioP1;P1;durP2;ratioP2;P2;SDS_P1;SDS_P2;PMS_P1;PMS_P2;Temp;Humidity;BMP_temperature;BMP_pressure;BME280_temperature;BME280_humidity;BME280_pressure;Samples;Min_cycle;Max_cycle;Signal;HPM_P1;HPM_P2
2022/07/16 00:03:09;;;;;;;5.40;1.90;;;;;;;17.97;51.31;97008.81;5033908;28;20052;-62
2022/07/16 00:05:35;;;;;;;6.72;2.70;;;;;;;17.80;52.64;97010.47;5032693;28;20026;-61
2022/07/16 00:08:00;;;;;;;4.43;2.22;;;;;;;17.72;52.03;97004.19;5032837;28;20045;-61
2022/07/16 00:10:26;;;;;;;5.97;2.10;;;;;;;17.73;52.29;97004.97;5032989;28;20033;-62
2022/07/16 00:12:51;;;;;;;5.75;2.42;;;;;;;17.65;52.67;97001.47;5032432;28;20075;-61
2022/07/16 00:15:17;;;;;;;7.55;3.92;;;;;;;17.75;51.81;97003.38;5031383;28;20036;-58
2022/07/16 00:17:42;;;;;;;5.68;2.58;;;;;;;17.74;52.22;97007.34;5032525;28;20156;-61
2022/07/16 00:20:09;;;;;;;4.20;2.25;;;;;;;17.76;52.17;97004.94;5012991;28;20176;-62
2022/07/16 00:22:35;;;;;;;3.90;2.17;;;;;;;17.94;52.15;96995.75;5011574;28;20025;-61
2022/07/16 00:25:00;;;;;;;11.05;2.45;;;;;;;17.88;51.87;97002.91;5028552;28;20025;-60
2022/07/16 00:27:26;;;;;;;9.00;2.38;;;;;;;17.84;52.45;97008.44;5032741;28;20156;-60
2022/07/16 00:29:51;;;;;;;5.38;2.00;;;;;;;17.81;52.32;97005.69;5032668;28;20029;-57
2022/07/16 00:32:17;;;;;;;6.25;2.05;;;;;;;17.94;52.47;96999.31;5032258;28;20068;-62
2022/07/16 00:34:42;;;;;;;8.00;2.00;;;;;;;18.33;51.66;96997.41;5031083;28;20087;-60
2022/07/16 00:37:07;;;;;;;7.00;2.22;;;;;;;18.45;51.42;96998.84;5018192;28;20032;-63
2022/07/16 00:39:33;;;;;;;3.88;2.00;;;;;;;18.47;50.97;96994.47;5024192;28;20033;-63
2022/07/16 00:41:58;;;;;;;5.65;1.90;;;;;;;18.55;52.10;96995.19;5025241;28;20037;-60
2022/07/16 00:44:24;;;;;;;4.15;2.15;;;;;;;18.58;53.01;96994.34;5039341;28;20026;-60
2022/07/16 00:46:50;;;;;;;5.30;2.05;;;;;;;18.73;53.10;97004.09;5031535;28;20026;-63
2022/07/16 00:49:17;;;;;;;6.47;2.40;;;;;;;18.65;54.04;96993.50;5031086;28;20513;-63
2022/07/16 00:51:50;;;;;;;5.38;2.42;;;;;;;18.56;54.77;96993.97;5013931;28;20092;-63
2022/07/16 00:54:17;;;;;;;7.93;2.70;;;;;;;18.40;55.35;96997.34;5031601;28;20462;-62
2022/07/16 00:56:43;;;;;;;4.53;2.30;;;;;;;18.19;55.30;97001.09;5020706;28;20044;-63
2022/07/16 00:59:09;;;;;;;7.15;2.38;;;;;;;18.01;56.22;97006.00;5027044;28;20037;-63
2022/07/16 01:01:35;;;;;;;3.35;1.85;;;;;;;17.89;56.83;97007.25;5023425;28;20064;-62
2022/07/16 01:04:04;;;;;;;4.20;2.03;;;;;;;17.87;55.36;97007.66;5021598;28;20511;-62
2022/07/16 01:06:31;;;;;;;3.03;1.92;;;;;;;17.83;56.00;97012.44;5020016;28;20483;-63
2022/07/16 01:08:58;;;;;;;8.43;2.28;;;;;;;17.90;56.04;97006.88;5025708;28;20406;-62
2022/07/16 01:11:25;;;;;;;4.10;1.85;;;;;;;17.86;55.43;97002.53;5028813;28;20041;-63
2022/07/16 01:13:51;;;;;;;4.30;2.10;;;;;;;18.00;55.41;96998.88;5031421;28;20036;-61
2022/07/16 01:16:18;;;;;;;6.85;2.05;;;;;;;18.09;54.34;96999.19;5031544;28;20419;-61
2022/07/16 01:18:43;;;;;;;4.20;1.77;;;;;;;18.20;54.33;96991.56;5028272;28;20047;-60
2022/07/16 01:21:09;;;;;;;4.40;2.00;;;;;;;18.25;54.21;97001.41;5022978;28;20030;-63
2022/07/16 01:23:34;;;;;;;7.68;2.95;;;;;;;18.47;53.36;96993.69;5031182;28;20057;-62
2022/07/16 01:26:00;;;;;;;5.53;2.00;;;;;;;18.56;54.10;96984.88;5031207;28;20504;-63
2022/07/16 01:28:26;;;;;;;5.30;2.40;;;;;;;18.11;55.32;96994.81;5026111;28;20021;-60
2022/07/16 01:30:51;;;;;;;5.25;2.78;;;;;;;18.02;56.68;96988.16;5027604;28;20041;-63
2022/07/16 01:33:36;;;;;;;4.47;2.70;;;;;;;17.90;57.18;96986.69;5031288;28;20033;-62
2022/07/16 01:36:14;;;;;;;4.22;1.95;;;;;;;17.93;57.26;96988.63;5030892;28;20057;-64
2022/07/16 01:38:42;;;;;;;4.53;2.45;;;;;;;17.83;57.04;96989.47;5022409;28;20030;-61
2022/07/16 01:41:08;;;;;;;5.32;2.53;;;;;;;17.60;58.14;96988.06;5023514;28;20107;-63
2022/07/16 01:43:34;;;;;;;4.88;2.60;;;;;;;17.60;58.57;96985.28;5028420;28;20036;-63
2022/07/16 01:45:59;;;;;;;13.82;2.33;;;;;;;17.49;58.71;96990.88;5030734;28;20030;-63
2022/07/16 01:48:26;;;;;;;5.80;2.25;;;;;;;17.42;58.72;96993.69;5013361;28;20058;-63
2022/07/16 01:50:53;;;;;;;5.68;2.53;;;;;;;17.38;58.92;96987.41;5012425;28;20510;-64
2022/07/16 01:53:18;;;;;;;5.47;2.13;;;;;;;17.10;62.38;96986.34;5012809;28;20029;-63
2022/07/16 01:55:44;;;;;;;4.97;2.30;;;;;;;17.08;61.60;96990.72;5023942;28;20454;-61
2022/07/16 01:58:11;;;;;;;4.90;2.30;;;;;;;16.94;63.82;96988.81;5026279;28;20037;-58
2022/07/16 02:00:39;;;;;;;6.75;2.22;;;;;;;16.54;64.82;96985.34;5026302;28;20042;-59
2022/07/16 02:03:05;;;;;;;8.27;2.50;;;;;;;16.55;63.96;96984.97;5025382;28;20037;-61
2022/07/16 02:05:30;;;;;;;4.28;2.42;;;;;;;16.70;64.32;96984.91;5032500;28;20029;-60
2022/07/16 02:07:56;;;;;;;5.50;2.13;;;;;;;16.80;63.02;96987.66;5034891;28;20022;-61
2022/07/16 02:10:21;;;;;;;5.00;2.00;;;;;;;16.89;63.20;96986.44;5034802;28;20029;-61
2022/07/16 02:12:47;;;;;;;3.75;2.13;;;;;;;16.92;62.99;96980.91;5034478;28;20067;-61
2022/07/16 02:15:13;;;;;;;4.47;2.15;;;;;;;16.85;63.25;96986.47;5034235;28;20426;-61
2022/07/16 02:17:39;;;;;;;5.80;2.55;;;;;;;16.88;64.61;96988.44;5015211;28;20037;-61
2022/07/16 02:20:07;;;;;;;5.75;2.65;;;;;;;16.91;63.11;96992.38;5015272;28;20049;-62
2022/07/16 02:22:32;;;;;;;5.10;2.60;;;;;;;16.92;64.01;96994.72;5015823;28;20033;-60
2022/07/16 02:24:58;;;;;;;10.10;2.80;;;;;;;16.92;63.81;96986.44;5026659;28;20029;-60
2022/07/16 02:27:23;;;;;;;10.13;3.42;;;;;;;16.83;63.70;96988.84;5025880;28;20033;-62
2022/07/16 02:29:49;;;;;;;3.33;2.40;;;;;;;16.66;64.32;96984.94;5034788;28;20022;-60
2022/07/16 02:32:14;;;;;;;4.95;2.55;;;;;;;16.55;64.76;96987.72;5034655;28;20029;-60
2022/07/16 02:34:40;;;;;;;6.47;2.70;;;;;;;16.59;65.24;96988.50;5034045;28;20363;-61
2022/07/16 02:37:05;;;;;;;6.90;2.60;;;;;;;16.52;65.57;96990.50;5029334;28;20098;-62
2022/07/16 02:39:32;;;;;;;4.53;2.63;;;;;;;16.32;67.06;96985.41;5036586;28;20034;-62
2022/07/16 02:41:58;;;;;;;5.38;2.70;;;;;;;16.15;67.54;96988.97;5035070;28;20029;-62
2022/07/16 02:44:23;;;;;;;5.53;2.42;;;;;;;16.11;67.89;96991.72;5026179;28;20042;-61
2022/07/16 02:46:48;;;;;;;4.05;2.30;;;;;;;16.03;68.58;96987.41;5034585;28;20491;-60
2022/07/16 02:49:14;;;;;;;5.22;2.60;;;;;;;16.08;68.75;96986.22;5050327;28;20052;-62
2022/07/16 02:51:39;;;;;;;7.25;3.20;;;;;;;15.96;69.16;96985.44;5040410;28;20033;-62
2022/07/16 02:54:04;;;;;;;8.45;2.70;;;;;;;16.08;70.06;96998.06;5038810;28;20030;-63
2022/07/16 02:56:31;;;;;;;9.05;3.15;;;;;;;16.08;69.70;96986.22;5024633;28;20025;-61
2022/07/16 02:58:56;;;;;;;7.20;2.95;;;;;;;16.11;70.44;96982.66;5016937;28;20121;-62
2022/07/16 03:01:22;;;;;;;14.10;2.80;;;;;;;16.10;70.63;96979.13;5023998;28;20068;-60
2022/07/16 03:03:47;;;;;;;8.68;2.50;;;;;;;16.08;70.40;96987.03;5022556;28;20026;-60
2022/07/16 03:06:13;;;;;;;5.63;2.67;;;;;;;16.02;70.47;96994.91;5014663;28;20040;-63
2022/07/16 03:08:38;;;;;;;6.60;2.63;;;;;;;15.96;71.26;96995.72;5014918;28;20033;-62
2022/07/16 03:11:03;;;;;;;5.50;3.15;;;;;;;15.85;72.33;96993.72;5021460;28;20401;-63
2022/07/16 03:13:29;;;;;;;11.15;2.70;;;;;;;15.81;72.71;96995.69;5022883;28;20526;-60
2022/07/16 03:15:54;;;;;;;5.80;2.50;;;;;;;15.71;73.73;97006.72;5012209;28;20132;-61
2022/07/16 03:18:21;;;;;;;4.47;2.67;;;;;;;15.35;77.26;96998.38;5028759;28;20038;-60
2022/07/16 03:20:47;;;;;;;5.40;2.47;;;;;;;15.16;78.40;96999.50;5026046;28;20040;-62
2022/07/16 03:23:12;;;;;;;8.98;2.97;;;;;;;15.15;78.69;96998.72;5034115;28;20112;-62
2022/07/16 03:25:38;;;;;;;7.85;3.13;;;;;;;14.60;83.51;97007.13;5035508;28;20104;-62
2022/07/16 03:28:04;;;;;;;8.65;3.22;;;;;;;14.65;83.56;97001.25;5033252;28;20485;-63
2022/07/16 03:30:29;;;;;;;5.40;3.15;;;;;;;14.71;82.83;97005.22;5023596;28;20026;-63
2022/07/16 03:32:57;;;;;;;10.15;2.95;;;;;;;14.59;83.52;97009.09;5013611;28;20103;-61
2022/07/16 03:35:23;;;;;;;5.93;3.20;;;;;;;14.54;84.78;97001.94;5013897;28;20109;-60
2022/07/16 03:40:33;;;;;;;6.03;3.00;;;;;;;14.71;85.21;97008.78;5014063;28;20384;-63
2022/07/16 03:42:58;;;;;;;6.47;3.10;;;;;;;14.80;85.02;97005.69;5026740;28;20033;-61
2022/07/16 03:45:24;;;;;;;6.38;3.65;;;;;;;14.60;85.56;97007.13;5022914;28;20037;-61
2022/07/16 03:47:50;;;;;;;4.85;3.05;;;;;;;14.59;85.34;97005.56;5026252;28;20072;-62
2022/07/16 03:50:16;;;;;;;3.97;2.75;;;;;;;14.57;85.68;97003.16;5035610;28;20490;-63
2022/07/16 03:52:42;;;;;;;6.15;3.40;;;;;;;14.52;85.65;97009.81;5035220;28;20079;-62
2022/07/16 03:55:08;;;;;;;7.55;3.58;;;;;;;14.04;90.43;97009.09;5033603;28;20079;-60
2022/07/16 03:57:34;;;;;;;9.15;3.45;;;;;;;13.88;92.97;97007.44;5033022;28;20029;-62
2022/07/16 03:59:59;;;;;;;7.18;3.38;;;;;;;14.02;92.83;97012.25;5026154;28;20035;-63
2022/07/16 04:02:24;;;;;;;5.47;3.10;;;;;;;13.90;92.99;97013.34;5033987;28;20037;-62
2022/07/16 04:04:50;;;;;;;8.80;3.85;;;;;;;14.19;92.31;97015.50;5033440;28;20033;-62
2022/07/16 04:07:15;;;;;;;6.88;3.90;;;;;;;14.50;89.90;97016.91;5025362;28;20029;-62
2022/07/16 04:09:41;;;;;;;13.02;3.75;;;;;;;14.72;88.45;97023.34;5033281;28;20036;-61
2022/07/16 04:12:06;;;;;;;5.75;3.38;;;;;;;14.86;86.26;97026.19;5031996;28;20405;-62
2022/07/16 04:14:32;;;;;;;4.50;3.13;;;;;;;15.01;85.56;97023.47;5025062;28;20029;-60
2022/07/16 04:16:57;;;;;;;6.72;3.33;;;;;;;15.18;84.18;97030.22;5033318;28;20067;-60
2022/07/16 04:19:23;;;;;;;6.13;3.35;;;;;;;15.24;83.23;97029.47;5033638;28;20048;-63
2022/07/16 04:21:48;;;;;;;6.03;3.30;;;;;;;15.35;80.73;97037.00;5033250;28;20029;-61
2022/07/16 04:24:14;;;;;;;6.28;3.35;;;;;;;15.18;81.83;97030.22;5033155;28;20069;-63
2022/07/16 04:26:39;;;;;;;6.75;3.45;;;;;;;15.41;80.09;97038.19;5030075;28;20048;-63
2022/07/16 04:29:04;;;;;;;9.48;3.55;;;;;;;15.67;78.17;97035.09;5023767;28;20143;-64
2022/07/16 04:31:30;;;;;;;7.22;3.10;;;;;;;15.97;76.07;97038.69;5032622;28;20032;-64
2022/07/16 04:33:56;;;;;;;12.48;3.42;;;;;;;16.11;74.78;97035.94;5032463;28;20030;-64
2022/07/16 04:36:21;;;;;;;5.60;3.10;;;;;;;16.19;74.25;97043.06;5034851;28;20034;-61
2022/07/16 04:38:46;;;;;;;6.78;3.28;;;;;;;16.23;73.53;97048.59;5032526;28;20033;-63
2022/07/16 04:41:12;;;;;;;4.88;2.95;;;;;;;16.22;73.80;97041.47;5029775;28;20072;-63
2022/07/16 04:43:38;;;;;;;10.73;3.40;;;;;;;16.39;72.90;97045.41;5023106;28;20134;-62
2022/07/16 04:46:04;;;;;;;6.30;3.22;;;;;;;16.52;72.02;97048.56;5031992;28;20116;-63
2022/07/16 04:48:30;;;;;;;4.95;3.25;;;;;;;15.85;76.78;97048.19;5032384;28;20053;-64
2022/07/16 04:50:55;;;;;;;9.98;3.42;;;;;;;15.47;79.64;97056.75;5032150;28;20041;-61
2022/07/16 04:53:21;;;;;;;6.20;3.45;;;;;;;15.48;80.74;97054.78;5028914;28;20036;-63
2022/07/16 04:55:46;;;;;;;9.80;4.10;;;;;;;15.39;81.18;97046.06;5027676;28;20398;-60
2022/07/16 04:58:12;;;;;;;6.82;3.40;;;;;;;15.57;81.11;97055.19;5027226;28;20395;-61
2022/07/16 05:00:37;;;;;;;8.18;3.40;;;;;;;16.33;77.54;97061.63;5030377;28;20037;-62
2022/07/16 05:03:02;;;;;;;8.45;3.75;;;;;;;16.95;72.90;97062.31;5017258;28;20029;-64
2022/07/16 05:05:31;;;;;;;6.45;3.60;;;;;;;16.98;70.48;97061.53;5011875;28;20029;-64
2022/07/16 05:07:57;;;;;;;6.57;2.83;;;;;;;16.96;69.23;97061.13;5011748;28;20505;-63
2022/07/16 05:10:24;;;;;;;9.65;3.20;;;;;;;17.13;70.16;97063.03;5043613;28;20050;-59
2022/07/16 05:12:50;;;;;;;6.65;3.03;;;;;;;17.45;69.16;97058.53;5031050;28;20037;-59
2022/07/16 05:15:16;;;;;;;6.72;3.40;;;;;;;17.81;66.93;97058.34;5031550;28;20084;-62
2022/07/16 05:17:42;;;;;;;5.65;3.20;;;;;;;18.64;63.73;97055.75;5031163;28;20037;-61
2022/07/16 05:20:08;;;;;;;6.93;2.97;;;;;;;19.44;61.05;97048.88;5031799;28;20114;-63
2022/07/16 05:22:33;;;;;;;4.65;2.95;;;;;;;21.00;54.35;97054.38;5030844;28;20037;-62
2022/07/16 05:24:59;;;;;;;9.77;2.78;;;;;;;21.96;50.68;97055.56;5023054;28;20037;-61
2022/07/16 05:27:24;;;;;;;13.63;3.40;;;;;;;21.75;50.68;97071.56;5027382;28;20060;-62
2022/07/16 05:29:49;;;;;;;8.45;3.05;;;;;;;22.81;47.88;97054.66;5031463;28;20033;-62
2022/07/16 05:32:15;;;;;;;7.07;2.22;;;;;;;23.82;44.92;97063.84;5031352;28;20033;-60
2022/07/16 05:34:40;;;;;;;3.88;2.33;;;;;;;24.52;42.73;97060.41;5032484;28;20099;-62
2022/07/16 05:37:06;;;;;;;4.63;2.63;;;;;;;25.07;41.89;97069.34;5031519;28;20028;-63
2022/07/16 05:39:31;;;;;;;5.35;2.50;;;;;;;24.07;43.98;97059.47;5027569;28;20561;-63
2022/07/16 05:41:57;;;;;;;4.88;2.20;;;;;;;25.31;41.66;97064.09;5024625;28;20053;-61
2022/07/16 05:44:23;;;;;;;5.63;2.30;;;;;;;26.02;40.04;97059.84;5031374;28;20029;-62
2022/07/16 05:46:48;;;;;;;5.03;2.20;;;;;;;27.55;36.72;97064.25;5030929;28;20083;-61
2022/07/16 05:49:14;;;;;;;5.68;1.77;;;;;;;28.75;34.13;97064.56;5031284;28;20121;-62
2022/07/16 05:51:39;;;;;;;3.67;1.50;;;;;;;29.07;33.60;97064.19;5031305;28;20122;-61
2022/07/16 05:54:04;;;;;;;4.80;1.92;;;;;;;29.73;31.96;97074.41;5028720;28;20047;-64
2022/07/16 05:56:30;;;;;;;6.18;1.83;;;;;;;29.37;32.47;97073.50;5052033;23;20040;-70
2022/07/16 05:59:01;;;;;;;6.40;2.10;;;;;;;29.09;32.92;97078.56;5050882;28;20370;-69
2022/07/16 06:01:27;;;;;;;6.00;2.60;;;;;;;28.98;32.97;97084.78;5046558;28;20033;-69
2022/07/16 06:03:53;;;;;;;10.23;5.15;;;;;;;29.47;31.46;97082.66;5038505;28;20088;-69
2022/07/16 06:06:18;;;;;;;3.05;1.70;;;;;;;30.44;29.99;97085.84;5030517;28;20127;-69
2022/07/16 06:08:43;;;;;;;4.32;1.73;;;;;;;31.02;29.93;97088.94;5041618;28;20037;-69
2022/07/16 06:11:09;;;;;;;3.00;1.73;;;;;;;31.37;28.88;97094.50;5046176;28;20055;-69
2022/07/16 06:13:36;;;;;;;5.65;1.98;;;;;;;31.52;27.89;97094.44;5051582;28;20473;-68
2022/07/16 06:16:02;;;;;;;4.32;1.80;;;;;;;30.27;28.13;97096.84;5050947;28;20489;-68
2022/07/16 06:18:27;;;;;;;4.60;1.98;;;;;;;27.96;31.24;97085.28;5040757;28;20029;-69
2022/07/16 06:20:53;;;;;;;5.35;2.67;;;;;;;29.17;30.73;97093.88;5054775;28;20435;-69
2022/07/16 06:23:18;;;;;;;6.38;2.40;;;;;;;29.01;31.01;97097.09;5043282;28;20036;-69
2022/07/16 06:25:43;;;;;;;7.25;2.08;;;;;;;29.60;30.46;97090.84;5030771;28;20649;-69
2022/07/16 06:28:09;;;;;;;7.55;2.50;;;;;;;28.20;34.05;97099.44;5045936;28;20018;-69
2022/07/16 06:30:34;;;;;;;3.67;1.60;;;;;;;24.22;37.48;97091.38;5035076;28;20425;-70
2022/07/16 06:32:59;;;;;;;6.10;2.20;;;;;;;27.24;32.67;97096.16;5043570;28;20037;-70
2022/07/16 06:35:25;;;;;;;5.60;1.75;;;;;;;26.52;34.23;97097.16;5051480;28;20063;-68
2022/07/16 06:37:50;;;;;;;3.50;1.88;;;;;;;25.70;36.09;97097.53;5032216;28;20029;-70
2022/07/16 06:40:17;;;;;;;5.68;2.60;;;;;;;23.72;39.52;97103.28;5036106;28;20037;-69
2022/07/16 06:42:43;;;;;;;4.22;1.90;;;;;;;22.41;42.44;97102.34;5043286;28;20489;-69
2022/07/16 06:45:09;;;;;;;7.28;2.10;;;;;;;22.99;43.25;97101.66;5050995;28;20033;-68
2022/07/16 06:47:35;;;;;;;9.50;2.50;;;;;;;23.07;42.99;97099.50;5047438;28;20029;-69
2022/07/16 06:50:00;;;;;;;6.60;2.08;;;;;;;24.66;40.01;97093.56;5038661;28;20029;-71
2022/07/16 06:52:25;;;;;;;4.55;1.92;;;;;;;24.51;39.75;97089.66;5040322;28;20099;-70
2022/07/16 06:54:51;;;;;;;7.55;2.10;;;;;;;23.74;40.43;97092.44;5061261;28;20036;-70
2022/07/16 06:57:16;;;;;;;8.32;2.20;;;;;;;24.18;39.50;97093.50;5053927;28;20033;-69
2022/07/16 06:59:42;;;;;;;6.78;2.45;;;;;;;24.92;37.43;97099.09;5053838;28;20374;-68
2022/07/16 07:02:07;;;;;;;3.60;2.03;;;;;;;22.52;42.74;97100.06;5051779;28;20071;-69
2022/07/16 07:04:33;;;;;;;5.10;2.58;;;;;;;22.12;43.51;97096.63;5053688;28;20503;-69
2022/07/16 07:06:58;;;;;;;6.65;2.15;;;;;;;22.53;43.83;97098.06;5052103;28;20024;-69
2022/07/16 07:09:24;;;;;;;3.70;1.90;;;;;;;22.48;43.38;97096.59;5036120;28;20035;-69
2022/07/16 07:11:49;;;;;;;7.00;2.38;;;;;;;23.17;41.98;97092.06;5032260;28;20140;-70
2022/07/16 07:14:14;;;;;;;5.63;2.35;;;;;;;22.86;42.00;97098.03;5037122;28;20028;-69
2022/07/16 07:16:40;;;;;;;3.55;1.83;;;;;;;23.41;40.23;97096.16;5044548;28;20478;-69
2022/07/16 07:19:05;;;;;;;4.57;2.22;;;;;;;22.53;42.75;97101.63;5040079;28;20061;-68
2022/07/16 07:21:30;;;;;;;7.72;2.60;;;;;;;23.50;41.51;97098.31;5046482;28;20048;-68
2022/07/16 07:23:57;;;;;;;6.95;2.20;;;;;;;24.92;38.64;97102.69;5050811;28;20041;-69
2022/07/16 07:26:22;;;;;;;3.17;1.92;;;;;;;23.11;42.19;97099.41;5039295;28;20033;-69
2022/07/16 07:28:48;;;;;;;6.93;1.90;;;;;;;25.06;38.08;97093.00;5052323;28;20035;-68
2022/07/16 07:31:13;;;;;;;6.25;2.28;;;;;;;25.36;37.25;97102.00;5046224;28;20029;-68
2022/07/16 07:33:39;;;;;;;8.90;2.63;;;;;;;23.64;40.58;97091.50;5053791;28;20065;-68
2022/07/16 07:36:05;;;;;;;4.78;2.38;;;;;;;25.24;38.88;97088.78;5045485;28;20052;-68
2022/07/16 07:38:31;;;;;;;9.30;2.83;;;;;;;25.40;38.13;97091.41;5057786;28;20042;-69
2022/07/16 07:40:57;;;;;;;11.25;2.28;;;;;;;24.53;39.16;97085.19;5034824;28;20041;-69
2022/07/16 07:43:23;;;;;;;8.55;2.60;;;;;;;24.12;40.36;97089.69;5033033;28;20035;-70
2022/07/16 07:45:49;;;;;;;8.13;2.03;;;;;;;23.80;40.64;97085.06;5056961;28;20490;-70
2022/07/16 07:48:15;;;;;;;7.63;2.33;;;;;;;24.89;39.20;97094.41;5047628;28;20070;-70
2022/07/16 07:50:40;;;;;;;5.75;2.20;;;;;;;26.83;34.89;97087.06;5055614;28;20065;-70
2022/07/16 07:53:06;;;;;;;5.63;2.33;;;;;;;28.74;31.67;97088.38;5072142;28;20076;-69
2022/07/16 07:55:32;;;;;;;6.53;2.25;;;;;;;25.34;36.98;97090.44;5057561;28;20048;-69
2022/07/16 07:57:57;;;;;;;6.75;2.53;;;;;;;24.73;38.95;97084.16;5047867;28;20481;-71
2022/07/16 08:00:23;;;;;;;5.05;2.08;;;;;;;23.74;40.33;97081.25;5039847;28;20063;-69
2022/07/16 08:02:49;;;;;;;9.85;2.20;;;;;;;23.65;42.28;97087.50;5033417;28;20129;-70
2022/07/16 08:05:15;;;;;;;3.83;2.00;;;;;;;24.83;39.90;97088.63;5034928;28;20132;-69
2022/07/16 08:07:42;;;;;;;5.72;2.20;;;;;;;24.63;40.18;97088.09;5032346;28;20037;-69
2022/07/16 08:10:10;;;;;;;7.35;2.30;;;;;;;24.70;39.65;97093.44;5023560;28;20442;-68
2022/07/16 08:12:37;;;;;;;7.33;2.13;;;;;;;25.12;37.68;97082.78;5040306;28;20041;-69
2022/07/16 08:15:04;;;;;;;13.82;2.33;;;;;;;24.25;38.73;97092.47;5041373;28;20113;-69
2022/07/16 08:17:29;;;;;;;10.02;2.30;;;;;;;25.29;38.18;97089.00;5040085;28;20049;-69
2022/07/16 08:19:56;;;;;;;5.57;1.90;;;;;;;24.83;38.38;97085.81;5051770;28;20045;-70
2022/07/16 08:22:21;;;;;;;4.63;2.13;;;;;;;25.49;36.83;97088.69;5034797;28;20311;-69
2022/07/16 08:27:31;;;;;;;4.05;2.05;;;;;;;25.10;37.03;97087.25;5044196;28;20473;-69
2022/07/16 08:29:57;;;;;;;5.75;1.75;;;;;;;24.63;37.70;97080.47;5046860;28;20112;-70
2022/07/16 08:32:22;;;;;;;7.22;2.05;;;;;;;25.27;36.58;97085.88;5035216;28;20855;-69
2022/07/16 08:34:47;;;;;;;5.43;2.10;;;;;;;23.95;38.34;97085.41;5025091;28;20497;-70
2022/07/16 08:37:13;;;;;;;9.45;2.10;;;;;;;25.01;36.29;97079.56;5018283;28;20119;-70
2022/07/16 08:39:44;;;;;;;4.97;2.00;;;;;;;24.43;37.43;97084.31;5027743;28;20439;-70
2022/07/16 08:42:13;;;;;;;4.75;1.92;;;;;;;25.19;36.35;97090.13;5038170;28;20064;-70
2022/07/16 08:44:40;;;;;;;5.13;2.17;;;;;;;25.34;36.45;97084.84;5042798;28;20393;-70
2022/07/16 08:47:08;;;;;;;6.57;2.20;;;;;;;26.28;35.36;97082.88;5034526;28;20033;-68
2022/07/16 08:49:35;;;;;;;4.07;2.33;;;;;;;25.28;35.95;97084.66;5033841;28;20133;-70
2022/07/16 08:52:02;;;;;;;7.60;1.90;;;;;;;24.35;36.55;97091.34;5042592;28;20036;-70
2022/07/16 08:54:29;;;;;;;5.00;1.95;;;;;;;24.33;37.55;97079.81;5037977;28;20045;-69
2022/07/16 08:56:54;;;;;;;6.82;2.58;;;;;;;24.25;37.80;97081.28;5050997;28;20045;-70
2022/07/16 08:59:20;;;;;;;5.00;2.38;;;;;;;25.00;37.58;97087.19;5047399;28;20087;-67
2022/07/16 09:01:46;;;;;;;6.80;1.98;;;;;;;26.13;35.32;97084.69;5046098;28;20440;-69
2022/07/16 09:04:11;;;;;;;6.18;2.15;;;;;;;26.64;32.95;97087.03;5037758;28;20041;-69
2022/07/16 09:06:37;;;;;;;11.48;4.88;;;;;;;24.89;36.42;97083.22;5041827;28;20044;-69
2022/07/16 09:09:03;;;;;;;5.53;2.72;;;;;;;24.14;38.51;97080.84;5041854;28;20411;-69
2022/07/16 09:11:34;;;;;;;6.43;2.67;;;;;;;24.19;37.73;97074.69;5040163;28;20574;-68
2022/07/16 09:14:07;;;;;;;4.75;2.15;;;;;;;25.94;34.84;97083.81;5030164;28;20067;-69
2022/07/16 09:16:40;;;;;;;4.60;2.20;;;;;;;27.65;35.22;97080.66;5038599;28;20124;-68
2022/07/16 09:19:12;;;;;;;5.15;2.67;;;;;;;27.50;35.73;97082.56;5025136;28;20053;-68
2022/07/16 09:21:58;;;;;;;4.97;1.92;;;;;;;27.82;31.03;97089.53;5041587;28;20109;-69
2022/07/16 09:24:41;;;;;;;10.00;2.28;;;;;;;28.32;30.86;97082.78;5028477;28;20049;-68
2022/07/16 09:27:10;;;;;;;5.88;1.95;;;;;;;28.31;29.94;97084.06;5034418;28;20037;-69
2022/07/16 09:29:56;;;;;;;6.07;1.85;;;;;;;29.06;28.89;97082.34;5031726;28;20061;-68
2022/07/16 09:32:36;;;;;;;4.55;1.95;;;;;;;28.46;29.28;97087.72;5022727;28;20063;-69
2022/07/16 09:35:11;;;;;;;6.22;2.50;;;;;;;28.02;35.09;97089.03;5034894;28;20029;-69
2022/07/16 09:37:55;;;;;;;5.85;2.25;;;;;;;28.32;35.29;97088.44;5037534;28;20532;-69
2022/07/16 09:40:34;;;;;;;7.60;1.92;;;;;;;28.24;34.88;97085.19;5035281;28;20045;-68
2022/07/16 09:43:17;;;;;;;4.88;2.08;;;;;;;28.50;34.78;97085.50;5039742;28;20083;-68
2022/07/16 09:45:44;;;;;;;6.78;2.50;;;;;;;27.21;36.67;97092.25;5037733;28;20048;-70
2022/07/16 09:48:23;;;;;;;6.95;2.30;;;;;;;28.42;35.56;97089.94;5018458;28;20099;-69
2022/07/16 09:50:50;;;;;;;4.15;1.83;;;;;;;28.91;34.16;97090.78;5033191;28;20041;-69
2022/07/16 09:53:20;;;;;;;2.80;1.92;;;;;;;28.01;34.17;97095.13;5033184;28;20047;-69
2022/07/16 09:56:10;;;;;;;4.35;2.28;;;;;;;27.88;36.16;97091.72;5054100;28;20045;-68
2022/07/16 09:58:36;;;;;;;;;;;;;;;28.31;34.65;97092.50;5028524;28;20504;-68
2022/07/16 10:01:03;;;;;;;7.50;2.50;;;;;;;28.60;34.57;97087.06;5034650;28;19913;-68
2022/07/16 10:03:29;;;;;;;5.05;2.78;;;;;;;28.73;35.02;97086.81;5023400;28;20045;-69
2022/07/16 10:05:56;;;;;;;6.68;1.88;;;;;;;28.88;31.73;97081.25;5032917;28;20060;-68
2022/07/16 10:08:22;;;;;;;4.35;2.00;;;;;;;28.01;33.09;97092.31;5026421;28;20072;-69
2022/07/16 10:10:49;;;;;;;5.50;2.53;;;;;;;27.90;30.06;97089.19;5024050;28;20050;-69
2022/07/16 10:13:16;;;;;;;6.43;1.88;;;;;;;27.82;30.47;97094.34;5038349;28;20114;-69
2022/07/16 10:15:45;;;;;;;6.88;2.42;;;;;;;26.50;33.27;97085.56;5039619;28;20059;-70
2022/07/16 10:18:43;;;;;;;5.50;2.20;;;;;;;25.71;33.10;97094.28;5019587;28;20158;-68
2022/07/16 10:21:21;;;;;;;4.55;2.20;;;;;;;26.11;33.55;97087.19;5029434;28;20056;-70
2022/07/16 10:24:04;;;;;;;5.00;2.00;;;;;;;25.64;34.45;97086.13;5038512;28;20045;-67
2022/07/16 10:26:30;;;;;;;6.22;1.95;;;;;;;25.62;34.10;97087.81;5024352;28;20049;-68
2022/07/16 10:28:55;;;;;;;5.20;2.22;;;;;;;24.98;35.59;97078.47;5036723;28;20052;-67
2022/07/16 10:31:38;;;;;;;4.60;2.28;;;;;;;25.15;35.03;97083.88;5021491;28;20399;-68
2022/07/16 10:34:32;;;;;;;4.97;2.55;;;;;;;25.48;34.90;97081.53;5023894;28;20091;-68
2022/07/16 10:36:58;;;;;;;4.35;2.33;;;;;;;25.60;33.82;97085.47;5033193;28;20048;-67
2022/07/16 10:39:26;;;;;;;5.22;2.92;;;;;;;26.42;32.76;97086.34;5020310;28;20046;-67
2022/07/16 10:41:59;;;;;;;5.53;2.00;;;;;;;27.58;31.31;97083.78;5027233;28;20065;-68
2022/07/16 10:44:42;;;;;;;4.55;2.28;;;;;;;28.44;29.87;97081.78;5032129;28;20056;-68
2022/07/16 10:47:08;;;;;;;6.22;3.70;;;;;;;28.60;29.46;97080.66;5029398;28;20131;-68
2022/07/16 10:49:33;;;;;;;5.15;2.28;;;;;;;29.00;29.37;97076.59;5043338;28;20191;-68
2022/07/16 10:51:58;;;;;;;4.72;2.20;;;;;;;29.43;28.60;97074.38;5045003;28;20140;-67
2022/07/16 10:54:35;;;;;;;4.13;2.65;;;;;;;29.13;28.77;97077.09;5040235;28;20071;-68
2022/07/16 10:57:06;;;;;;;5.18;1.95;;;;;;;29.46;28.68;97075.44;5059271;28;20071;-67
2022/07/16 10:59:35;;;;;;;4.03;2.00;;;;;;;29.64;28.28;97069.63;5034785;28;20438;-69
2022/07/16 11:02:03;;;;;;;3.77;1.77;;;;;;;29.32;28.87;97074.19;5025191;28;20406;-69
2022/07/16 11:04:41;;;;;;;4.53;1.50;;;;;;;29.40;28.15;97069.69;5021528;28;20323;-69
2022/07/16 11:07:18;;;;;;;5.90;2.20;;;;;;;28.93;28.54;97074.91;5019507;28;20288;-69
2022/07/16 11:09:49;;;;;;;8.38;2.13;;;;;;;29.27;28.39;97064.34;5024886;28;20084;-68
2022/07/16 11:12:24;;;;;;;8.40;2.85;;;;;;;29.66;28.71;97067.09;5029037;28;20122;-68
2022/07/16 11:14:51;;;;;;;5.03;1.83;;;;;;;29.63;28.43;97058.84;5030610;28;20463;-69
2022/07/16 11:17:23;;;;;;;3.58;2.00;;;;;;;29.68;28.08;97060.97;5023323;28;20109;-69
2022/07/16 11:19:59;;;;;;;5.47;1.95;;;;;;;29.60;28.94;97062.63;5037706;28;20109;-70
2022/07/16 11:22:30;;;;;;;4.57;2.00;;;;;;;29.59;31.72;97058.25;5036941;28;20068;-69
2022/07/16 11:25:01;;;;;;;4.13;2.05;;;;;;;29.40;32.02;97063.28;5046877;28;20099;-68
2022/07/16 11:27:35;;;;;;;4.97;2.08;;;;;;;29.00;33.22;97061.72;5039818;28;20052;-69
2022/07/16 11:30:12;;;;;;;5.45;2.10;;;;;;;28.41;33.75;97063.03;5038056;28;20068;-69
2022/07/16 11:32:42;;;;;;;4.82;2.33;;;;;;;27.49;34.96;97057.72;5044147;28;20049;-68
2022/07/16 11:35:09;;;;;;;6.32;2.53;;;;;;;27.15;36.89;97065.22;5040771;28;20048;-69
2022/07/16 11:37:55;;;;;;;3.83;1.90;;;;;;;27.40;37.28;97070.53;5042911;28;20381;-69
2022/07/16 11:40:35;;;;;;;4.70;2.10;;;;;;;27.49;35.38;97069.75;5038880;28;20461;-69
2022/07/16 11:43:00;;;;;;;8.63;2.45;;;;;;;27.46;34.32;97063.03;5030584;28;20046;-69